Time;durP1;ratioP1;P1;durP2;ratioP2;P2;SDS_P1;SDS_P2;PMS_P1;PMS_P2;Temp;Humidity;BMP_temperature;BMP_pressure;BME280_temperature;BME280_humidity;BME280_pressure;Samples;Min_cycle;Max_cycle;Signal;HPM_P1;HPM_P2
2022/03/04 00:00:20;;;;;;;15.50;6.50;;;5.30;99.90;;;;;;6245572;23;20040;-90
2022/03/04 00:02:47;;;;;;;15.23;7.93;;;5.20;99.90;;;;;;6245734;23;20040;-90
2022/03/04 00:05:14;;;;;;;13.70;6.82;;;5.10;99.90;;;;;;6245479;23;20047;-91
2022/03/04 00:07:41;;;;;;;13.65;6.68;;;5.20;99.90;;;;;;6247045;22;20016;-92
2022/03/04 00:10:08;;;;;;;16.67;7.65;;;5.20;99.90;;;;;;6221385;23;20044;-90
2022/03/04 00:12:36;;;;;;;15.52;6.70;;;5.20;99.90;;;;;;6244892;23;20028;-90
2022/03/04 00:15:03;;;;;;;15.65;7.65;;;5.20;99.90;;;;;;6247648;23;20020;-90
2022/03/04 00:17:31;;;;;;;19.63;8.82;;;5.20;99.90;;;;;;6245364;23;20024;-90
2022/03/04 00:19:58;;;;;;;18.65;8.95;;;5.00;99.90;;;;;;6245645;23;20024;-92
2022/03/04 00:22:25;;;;;;;18.77;9.25;;;4.70;99.90;;;;;;6245816;23;20020;-91
2022/03/04 00:24:52;;;;;;;21.77;8.20;;;4.70;99.90;;;;;;6245808;23;20021;-90
2022/03/04 00:27:20;;;;;;;16.60;7.10;;;4.70;99.90;;;;;;6245525;23;20023;-91
2022/03/04 00:29:47;;;;;;;21.40;8.55;;;4.90;99.90;;;;;;6221313;23;20020;-91
2022/03/04 00:32:14;;;;;;;19.95;8.45;;;4.90;99.90;;;;;;6246684;23;20028;-90
2022/03/04 00:34:42;;;;;;;16.05;7.25;;;4.80;99.90;;;;;;6245732;23;20337;-93
2022/03/04 00:37:09;;;;;;;13.05;6.38;;;5.00;99.90;;;;;;6245110;23;20028;-90
2022/03/04 00:39:36;;;;;;;15.75;7.45;;;4.80;99.90;;;;;;6245680;23;20094;-91
2022/03/04 00:42:04;;;;;;;16.02;7.10;;;4.70;99.90;;;;;;6247329;23;20066;-91
2022/03/04 00:44:31;;;;;;;12.48;6.30;;;4.80;99.90;;;;;;6247774;23;20012;-92
2022/03/04 00:46:58;;;;;;;12.70;7.28;;;4.80;99.90;;;;;;6248604;23;20020;-91
2022/03/04 00:49:25;;;;;;;18.50;7.40;;;4.80;99.90;;;;;;6247875;23;20020;-92
2022/03/04 00:51:52;;;;;;;15.13;7.03;;;4.80;99.90;;;;;;6247293;23;20012;-91
2022/03/04 00:54:19;;;;;;;18.17;7.35;;;4.80;99.90;;;;;;6246998;23;20024;-92
2022/03/04 00:56:46;;;;;;;18.10;7.93;;;4.80;99.90;;;;;;6247439;23;20016;-91
2022/03/04 00:59:14;;;;;;;16.83;7.30;;;4.80;99.90;;;;;;6221770;23;20444;-91
2022/03/04 01:01:41;;;;;;;16.35;7.90;;;4.70;99.90;;;;;;6221699;23;20012;-91
2022/03/04 01:04:08;;;;;;;19.77;8.40;;;4.70;99.90;;;;;;6221799;23;20066;-91
2022/03/04 01:06:35;;;;;;;16.23;8.30;;;4.60;99.90;;;;;;6222573;23;20062;-90
2022/03/04 01:09:04;;;;;;;26.90;9.95;;;4.50;99.90;;;;;;6246872;23;20028;-89
2022/03/04 01:11:31;;;;;;;18.48;8.02;;;4.60;99.90;;;;;;6247192;23;20095;-92
2022/03/04 01:13:58;;;;;;;16.67;7.45;;;4.50;99.90;;;;;;6247647;23;20024;-90
2022/03/04 01:16:25;;;;;;;14.20;8.30;;;4.70;99.90;;;;;;6222051;23;20024;-90
2022/03/04 01:18:52;;;;;;;13.82;6.18;;;4.60;99.90;;;;;;6246888;23;20161;-89
2022/03/04 01:21:19;;;;;;;16.40;7.10;;;4.80;99.90;;;;;;6221731;23;20024;-91
2022/03/04 01:23:46;;;;;;;21.35;9.90;;;4.80;99.90;;;;;;6246745;23;20023;-91
2022/03/04 01:26:13;;;;;;;13.90;7.60;;;4.50;99.90;;;;;;6222956;23;20020;-90
2022/03/04 01:28:40;;;;;;;18.10;7.35;;;4.50;99.90;;;;;;6257433;23;20023;-91
2022/03/04 01:31:10;;;;;;;16.02;6.78;;;4.50;99.90;;;;;;6222059;23;20026;-92
2022/03/04 01:33:37;;;;;;;19.45;8.13;;;4.50;99.90;;;;;;6222184;23;20016;-92
2022/03/04 01:36:05;;;;;;;16.58;8.25;;;4.50;99.90;;;;;;6251565;23;20405;-90
2022/03/04 01:38:32;;;;;;;14.60;6.72;;;4.50;99.90;;;;;;6245965;23;20107;-91
2022/03/04 01:40:59;;;;;;;14.38;6.57;;;4.60;99.90;;;;;;6220885;23;20024;-92
2022/03/04 01:43:26;;;;;;;16.58;7.07;;;4.70;99.90;;;;;;6221403;23;20030;-90
2022/03/04 01:45:53;;;;;;;21.13;9.85;;;4.70;99.90;;;;;;6221011;23;20016;-90
2022/03/04 01:48:22;;;;;;;20.90;8.38;;;4.30;99.90;;;;;;6250672;23;20070;-90
2022/03/04 01:50:50;;;;;;;21.75;8.00;;;4.40;99.90;;;;;;6245819;23;20047;-90
2022/03/04 01:53:18;;;;;;;18.35;9.60;;;4.10;99.90;;;;;;6245902;23;20064;-92
2022/03/04 01:55:45;;;;;;;15.18;6.68;;;4.20;99.90;;;;;;6229218;23;20515;-91
2022/03/04 01:58:12;;;;;;;16.15;7.20;;;4.40;99.90;;;;;;6246679;23;20020;-90
2022/03/04 02:00:39;;;;;;;17.58;7.35;;;4.60;99.90;;;;;;6246702;23;20043;-90
2022/03/04 02:03:11;;;;;;;15.30;6.78;;;4.60;99.90;;;;;;6246326;23;20312;-91
2022/03/04 02:05:40;;;;;;;16.48;6.93;;;4.60;99.90;;;;;;6246420;23;20020;-91
2022/03/04 02:08:07;;;;;;;10.85;6.50;;;4.60;99.90;;;;;;6220972;23;20082;-91
2022/03/04 02:10:34;;;;;;;10.38;5.93;;;4.70;99.90;;;;;;6245735;23;20039;-91
2022/03/04 02:13:01;;;;;;;12.93;6.57;;;4.50;99.90;;;;;;6221496;23;20078;-89
2022/03/04 02:15:28;;;;;;;17.30;6.75;;;4.30;99.90;;;;;;6246329;23;20024;-90
2022/03/04 02:17:55;;;;;;;13.85;6.85;;;4.40;99.90;;;;;;6246202;23;20038;-90
2022/03/04 02:20:22;;;;;;;13.50;6.60;;;4.50;99.90;;;;;;6246175;23;20452;-89
2022/03/04 02:22:50;;;;;;;24.58;9.68;;;4.60;99.90;;;;;;6246674;23;20016;-91
2022/03/04 02:25:17;;;;;;;13.88;7.13;;;4.10;99.90;;;;;;6246061;23;20103;-91
2022/03/04 02:27:44;;;;;;;13.25;6.28;;;4.00;99.90;;;;;;6246277;23;20147;-90
2022/03/04 02:30:12;;;;;;;21.50;8.13;;;4.30;99.90;;;;;;6246129;23;20027;-90
2022/03/04 02:32:39;;;;;;;22.33;9.93;;;4.20;99.90;;;;;;6246468;23;20020;-91
2022/03/04 02:35:06;;;;;;;16.20;7.85;;;3.90;99.90;;;;;;6246505;23;20348;-90
2022/03/04 02:37:34;;;;;;;21.00;9.55;;;4.10;99.90;;;;;;6249304;23;20032;-91
2022/03/04 02:40:02;;;;;;;19.40;7.90;;;4.10;99.90;;;;;;6250687;23;20470;-89
2022/03/04 02:42:29;;;;;;;18.20;6.80;;;3.90;99.90;;;;;;6221039;23;20019;-91
2022/03/04 02:44:56;;;;;;;17.58;8.38;;;4.10;99.90;;;;;;6252856;23;20020;-90
2022/03/04 02:47:23;;;;;;;14.60;7.68;;;4.00;99.90;;;;;;6253550;23;20012;-90
2022/03/04 02:49:50;;;;;;;14.43;6.70;;;4.00;99.90;;;;;;6221184;23;20020;-91
2022/03/04 02:52:17;;;;;;;15.65;6.60;;;4.10;99.90;;;;;;6246147;23;20051;-89
2022/03/04 02:54:44;;;;;;;28.27;10.15;;;4.20;99.90;;;;;;6221043;23;20023;-92
2022/03/04 02:57:11;;;;;;;19.30;8.73;;;3.70;99.90;;;;;;6246034;23;20020;-92
2022/03/04 02:59:38;;;;;;;16.83;7.38;;;3.90;99.90;;;;;;6221185;23;20050;-90
2022/03/04 03:02:06;;;;;;;21.08;8.70;;;4.10;99.90;;;;;;6246341;23;20024;-91
2022/03/04 03:04:33;;;;;;;17.35;7.63;;;4.00;99.90;;;;;;6245607;23;20026;-89
2022/03/04 03:07:00;;;;;;;24.80;9.65;;;3.90;99.90;;;;;;6246752;23;20020;-90
2022/03/04 03:09:27;;;;;;;24.23;10.30;;;3.90;99.90;;;;;;6245866;23;20020;-89
2022/03/04 03:11:54;;;;;;;14.73;7.00;;;3.70;99.90;;;;;;6245559;23;20515;-90
2022/03/04 03:14:21;;;;;;;23.15;9.73;;;3.70;99.90;;;;;;6220607;23;20359;-91
2022/03/04 03:16:48;;;;;;;14.85;6.97;;;3.60;99.90;;;;;;6220250;23;20031;-90
2022/03/04 03:19:15;;;;;;;16.88;7.28;;;3.90;99.90;;;;;;6245367;23;20103;-91
2022/03/04 03:21:42;;;;;;;18.65;8.00;;;4.00;99.90;;;;;;6245947;23;20424;-91
2022/03/04 03:24:09;;;;;;;15.52;7.20;;;4.00;99.90;;;;;;6246164;23;20095;-90
2022/03/04 03:26:36;;;;;;;13.95;6.85;;;4.10;99.90;;;;;;6245868;23;20383;-92
2022/03/04 03:29:03;;;;;;;18.95;8.55;;;4.20;99.90;;;;;;6255765;23;20042;-91
2022/03/04 03:31:30;;;;;;;12.02;6.20;;;4.30;99.90;;;;;;6245364;23;20027;-90
2022/03/04 03:33:57;;;;;;;16.80;6.97;;;4.10;99.90;;;;;;6245075;23;20096;-90
2022/03/04 03:36:24;;;;;;;14.18;7.05;;;4.20;99.90;;;;;;6245861;23;20023;-89
2022/03/04 03:38:52;;;;;;;22.13;8.73;;;4.10;99.90;;;;;;6220094;23;20103;-91
2022/03/04 03:41:18;;;;;;;15.43;6.70;;;4.10;99.90;;;;;;6244958;23;20020;-90
2022/03/04 03:43:45;;;;;;;17.55;8.43;;;4.10;99.90;;;;;;6245136;23;20046;-92
2022/03/04 03:46:13;;;;;;;16.23;7.25;;;4.00;99.90;;;;;;6246006;23;20020;-91
2022/03/04 03:48:41;;;;;;;16.95;7.45;;;3.80;99.90;;;;;;6245839;23;20039;-89
2022/03/04 03:51:09;;;;;;;14.65;7.65;;;4.00;99.90;;;;;;6245538;23;20020;-92
2022/03/04 03:53:37;;;;;;;16.48;6.60;;;3.90;99.90;;;;;;6245461;23;20391;-91
2022/03/04 03:56:04;;;;;;;18.75;9.35;;;4.10;99.90;;;;;;6253169;23;20044;-91
2022/03/04 03:58:31;;;;;;;19.58;8.05;;;3.80;99.90;;;;;;6245517;23;20020;-91
2022/03/04 04:00:59;;;;;;;14.65;6.22;;;3.60;99.90;;;;;;6220439;23;20024;-91
2022/03/04 04:03:26;;;;;;;18.85;7.03;;;3.80;99.90;;;;;;6245068;23;20016;-90
2022/03/04 04:05:53;;;;;;;17.83;7.97;;;4.00;99.90;;;;;;6245485;23;20020;-89
2022/03/04 04:08:20;;;;;;;23.35;9.73;;;4.00;99.90;;;;;;6244513;23;20016;-90
2022/03/04 04:10:47;;;;;;;17.02;7.75;;;3.60;99.90;;;;;;6244472;23;20012;-90
2022/03/04 04:13:14;;;;;;;20.10;8.02;;;3.50;99.90;;;;;;6244643;23;20051;-90
2022/03/04 04:15:41;;;;;;;14.77;7.32;;;3.40;99.90;;;;;;6246192;23;20047;-90
2022/03/04 04:18:08;;;;;;;24.70;10.00;;;3.50;99.90;;;;;;6221990;23;20020;-90
2022/03/04 04:20:35;;;;;;;16.45;7.75;;;3.60;99.90;;;;;;6246826;23;20028;-91
2022/03/04 04:23:03;;;;;;;19.65;8.00;;;3.70;99.90;;;;;;6221748;23;20043;-91
2022/03/04 04:25:30;;;;;;;22.35;9.20;;;3.70;99.90;;;;;;6246822;23;20099;-90
2022/03/04 04:27:57;;;;;;;12.70;6.82;;;3.60;99.90;;;;;;6246357;23;20016;-91
2022/03/04 04:30:24;;;;;;;19.63;8.32;;;3.70;99.90;;;;;;6221614;23;20016;-90
2022/03/04 04:32:51;;;;;;;15.23;6.35;;;3.60;99.90;;;;;;6247320;23;20452;-89
2022/03/04 04:35:18;;;;;;;13.90;6.60;;;3.70;99.90;;;;;;6222089;23;20019;-90
2022/03/04 04:37:45;;;;;;;19.58;6.63;;;3.90;99.90;;;;;;6246767;23;20020;-89
2022/03/04 04:40:12;;;;;;;14.85;6.75;;;4.00;99.90;;;;;;6247110;23;20012;-90
2022/03/04 04:42:39;;;;;;;16.65;7.13;;;4.10;99.90;;;;;;6247326;23;20020;-91
2022/03/04 04:45:07;;;;;;;13.32;6.47;;;4.00;99.90;;;;;;6222455;23;20022;-91
2022/03/04 04:47:35;;;;;;;18.98;7.05;;;4.00;99.90;;;;;;6221963;23;20467;-91
2022/03/04 04:50:03;;;;;;;16.58;6.72;;;3.80;99.90;;;;;;6247119;23;20012;-91
2022/03/04 04:52:30;;;;;;;14.95;8.15;;;3.90;99.90;;;;;;6246969;23;20020;-89
2022/03/04 04:54:57;;;;;;;15.70;6.63;;;4.00;99.90;;;;;;6248412;23;20378;-90
2022/03/04 04:57:24;;;;;;;14.73;7.05;;;4.00;99.90;;;;;;6249106;23;20095;-91
2022/03/04 04:59:51;;;;;;;16.23;6.88;;;3.90;99.90;;;;;;6248685;23;20031;-90
2022/03/04 05:02:18;;;;;;;13.75;7.10;;;4.00;99.90;;;;;;6246593;23;20439;-90
2022/03/04 05:04:45;;;;;;;15.18;8.02;;;3.80;99.90;;;;;;6221587;23;20356;-89
2022/03/04 05:07:12;;;;;;;16.23;6.90;;;3.80;99.90;;;;;;6246923;23;20020;-91
2022/03/04 05:09:39;;;;;;;14.15;6.10;;;3.80;99.90;;;;;;6221559;23;20020;-90
2022/03/04 05:12:06;;;;;;;19.08;7.45;;;3.80;99.90;;;;;;6246447;23;20023;-90
2022/03/04 05:14:33;;;;;;;14.38;6.88;;;3.80;99.90;;;;;;6247210;23;20016;-90
2022/03/04 05:17:00;;;;;;;11.70;6.07;;;3.80;99.90;;;;;;6246083;23;20443;-89
2022/03/04 05:19:27;;;;;;;18.55;6.75;;;3.90;99.90;;;;;;6246659;23;20056;-90
2022/03/04 05:21:57;;;;;;;21.42;7.28;;;3.80;99.90;;;;;;6246552;23;20019;-89
2022/03/04 05:24:26;;;;;;;12.82;6.53;;;3.80;99.90;;;;;;6246365;23;20395;-91
2022/03/04 05:26:52;;;;;;;15.30;6.95;;;3.90;99.90;;;;;;6249439;22;20039;-90
2022/03/04 05:29:19;;;;;;;15.27;7.60;;;3.90;99.90;;;;;;6252586;22;20039;-89
2022/03/04 05:31:46;;;;;;;17.02;7.28;;;3.80;99.90;;;;;;6227175;22;20411;-89
2022/03/04 05:34:13;;;;;;;15.93;6.68;;;3.80;99.90;;;;;;6252154;22;20102;-89
2022/03/04 05:36:40;;;;;;;14.18;6.28;;;3.70;99.90;;;;;;6251923;22;20119;-88
2022/03/04 05:39:07;;;;;;;15.93;6.00;;;3.70;99.90;;;;;;6252394;22;20024;-89
2022/03/04 05:41:34;;;;;;;14.50;6.05;;;3.80;99.90;;;;;;6252062;22;20439;-89
2022/03/04 05:44:03;;;;;;;14.95;7.07;;;3.80;99.90;;;;;;6226085;22;20016;-89
2022/03/04 05:46:32;;;;;;;15.43;7.22;;;3.80;99.90;;;;;;6251929;22;20443;-90
2022/03/04 05:48:59;;;;;;;18.58;8.48;;;3.70;99.90;;;;;;6255353;22;20016;-89
2022/03/04 05:51:26;;;;;;;13.60;6.38;;;3.60;99.90;;;;;;6253197;22;20047;-92
2022/03/04 05:53:53;;;;;;;17.38;6.43;;;3.70;99.90;;;;;;6232769;22;20110;-89
2022/03/04 05:56:29;;;;;;;14.00;6.10;;;3.70;99.90;;;;;;6253864;22;20436;-87
2022/03/04 05:58:56;;;;;;;18.33;6.35;;;3.70;99.90;;;;;;6251254;22;20074;-88
2022/03/04 06:01:23;;;;;;;15.02;6.30;;;3.70;99.90;;;;;;6225749;22;20118;-88
2022/03/04 06:03:50;;;;;;;16.63;6.43;;;3.70;99.90;;;;;;6277898;22;20008;-88
2022/03/04 06:06:17;;;;;;;14.65;7.00;;;3.70;99.90;;;;;;6251808;22;20039;-88
2022/03/04 06:08:44;;;;;;;15.93;6.13;;;3.60;99.90;;;;;;6225629;22;20012;-88
2022/03/04 06:11:11;;;;;;;13.67;6.57;;;3.50;99.90;;;;;;6251383;22;20031;-88
2022/03/04 06:13:41;;;;;;;15.23;6.00;;;3.60;99.90;;;;;;6226113;22;20474;-88
2022/03/04 06:16:09;;;;;;;14.73;7.22;;;3.70;99.90;;;;;;6225703;22;20028;-88
2022/03/04 06:18:39;;;;;;;13.80;6.50;;;3.60;99.90;;;;;;6249795;22;20046;-88
2022/03/04 06:21:06;;;;;;;18.38;7.55;;;3.60;99.90;;;;;;6274881;22;20027;-88
2022/03/04 06:23:33;;;;;;;18.50;7.88;;;3.60;99.90;;;;;;6248837;22;20014;-88
2022/03/04 06:26:02;;;;;;;18.35;7.65;;;3.50;99.90;;;;;;6251332;22;20016;-88
2022/03/04 06:28:29;;;;;;;15.95;7.80;;;3.50;99.90;;;;;;6245656;23;20039;-88
2022/03/04 06:30:59;;;;;;;14.82;7.43;;;3.40;99.90;;;;;;6247496;22;20023;-88
2022/03/04 06:33:32;;;;;;;11.75;5.50;;;3.40;99.90;;;;;;6220314;23;20027;-88
2022/03/04 06:36:09;;;;;;;21.65;8.23;;;3.50;99.90;;;;;;6220315;23;20027;-90
2022/03/04 06:38:41;;;;;;;13.88;6.07;;;3.50;99.90;;;;;;6246393;23;20031;-88
2022/03/04 06:41:13;;;;;;;13.57;7.35;;;3.50;99.90;;;;;;6245958;23;20071;-89
2022/03/04 06:43:41;;;;;;;16.73;7.47;;;3.50;99.90;;;;;;6247498;22;20424;-88
2022/03/04 06:46:08;;;;;;;11.52;5.45;;;3.60;99.90;;;;;;6245744;23;20008;-90
2022/03/04 06:48:38;;;;;;;13.77;7.45;;;3.50;99.90;;;;;;6245759;23;20400;-88
2022/03/04 06:51:08;;;;;;;12.82;6.38;;;3.50;99.90;;;;;;6221735;23;20047;-88
2022/03/04 06:53:40;;;;;;;15.15;7.68;;;3.50;99.90;;;;;;6245837;23;20035;-88
2022/03/04 06:56:07;;;;;;;14.27;7.35;;;3.50;99.90;;;;;;6245073;23;20107;-88
2022/03/04 06:58:34;;;;;;;19.38;8.75;;;3.50;99.90;;;;;;6245281;23;20016;-88
2022/03/04 07:01:03;;;;;;;16.27;9.35;;;3.50;99.90;;;;;;6245396;23;20016;-87
2022/03/04 07:03:31;;;;;;;15.25;7.15;;;3.50;99.90;;;;;;6245141;23;20030;-90
2022/03/04 07:05:58;;;;;;;14.88;7.35;;;3.50;99.90;;;;;;6245354;23;20435;-90
2022/03/04 07:08:24;;;;;;;21.08;9.35;;;3.40;99.90;;;;;;6246202;23;20039;-88
2022/03/04 07:10:51;;;;;;;16.17;7.22;;;3.30;99.90;;;;;;6245888;23;20018;-91
2022/03/04 07:13:21;;;;;;;19.20;7.50;;;3.30;99.90;;;;;;6246337;22;20390;-91
2022/03/04 07:15:52;;;;;;;15.20;6.55;;;3.30;99.90;;;;;;6244399;23;20016;-92
2022/03/04 07:18:19;;;;;;;13.70;7.30;;;3.40;99.90;;;;;;6246102;22;20012;-88
2022/03/04 07:20:49;;;;;;;20.42;8.18;;;3.40;99.90;;;;;;6244296;23;20024;-88
2022/03/04 07:23:16;;;;;;;13.18;7.25;;;3.40;99.90;;;;;;6246050;23;20020;-90
2022/03/04 07:25:43;;;;;;;18.95;8.10;;;3.40;99.90;;;;;;6244988;23;20038;-89
2022/03/04 07:28:10;;;;;;;17.00;8.73;;;3.40;99.90;;;;;;6264745;22;20347;-90
2022/03/04 07:30:37;;;;;;;17.85;7.38;;;3.40;99.90;;;;;;6250412;22;20069;-87
2022/03/04 07:33:05;;;;;;;20.38;7.60;;;3.40;99.90;;;;;;6276794;22;20012;-90
2022/03/04 07:35:32;;;;;;;19.52;8.48;;;3.40;99.90;;;;;;6225083;22;20051;-90
2022/03/04 07:37:59;;;;;;;17.63;8.65;;;3.50;99.90;;;;;;6249413;22;20019;-88
2022/03/04 07:40:26;;;;;;;13.48;6.60;;;3.40;99.90;;;;;;6224182;22;20439;-87
2022/03/04 07:42:53;;;;;;;14.32;7.25;;;3.50;99.90;;;;;;6276970;22;20023;-90
2022/03/04 07:45:20;;;;;;;17.42;7.32;;;3.50;99.90;;;;;;6276979;22;20011;-90
2022/03/04 07:47:47;;;;;;;18.63;9.80;;;3.50;99.90;;;;;;6224022;22;20019;-89
2022/03/04 07:50:16;;;;;;;19.13;8.27;;;3.30;99.90;;;;;;6224767;22;20044;-89
2022/03/04 07:52:44;;;;;;;22.00;9.30;;;3.30;99.90;;;;;;6276407;22;20020;-89
2022/03/04 07:55:14;;;;;;;22.70;10.40;;;3.40;99.90;;;;;;6225238;22;20051;-90
2022/03/04 07:57:44;;;;;;;14.25;6.97;;;3.40;99.90;;;;;;6226670;22;20026;-90
2022/03/04 08:00:14;;;;;;;21.35;8.35;;;3.50;99.90;;;;;;6224584;22;20016;-90
2022/03/04 08:02:41;;;;;;;23.27;9.38;;;3.50;99.90;;;;;;6250005;22;20023;-89
2022/03/04 08:05:12;;;;;;;18.63;9.25;;;3.50;99.90;;;;;;6249911;22;20344;-90
2022/03/04 08:07:42;;;;;;;19.48;8.13;;;3.60;99.90;;;;;;6225963;22;20018;-89
2022/03/04 08:10:10;;;;;;;20.25;9.02;;;3.60;99.90;;;;;;6249612;22;20297;-89
2022/03/04 08:12:39;;;;;;;20.48;8.60;;;3.70;99.90;;;;;;6276789;22;20015;-89
2022/03/04 08:15:12;;;;;;;23.80;9.83;;;3.70;99.90;;;;;;6250562;22;20016;-90
2022/03/04 08:17:40;;;;;;;22.77;10.20;;;3.70;99.90;;;;;;6276964;22;20496;-89
2022/03/04 08:20:09;;;;;;;18.98;8.68;;;3.80;99.90;;;;;;6224494;22;20051;-90
2022/03/04 08:22:38;;;;;;;19.95;9.68;;;3.90;99.90;;;;;;6277063;22;20398;-90
2022/03/04 08:25:21;;;;;;;19.17;9.70;;;3.80;99.90;;;;;;6225461;22;20012;-91
2022/03/04 08:28:15;;;;;;;19.20;9.57;;;3.90;99.90;;;;;;6276851;22;20012;-91
2022/03/04 08:30:54;;;;;;;19.42;7.95;;;4.00;99.90;;;;;;6226924;22;20082;-90
2022/03/04 08:33:27;;;;;;;20.42;9.52;;;4.10;99.90;;;;;;6249621;22;20020;-90
2022/03/04 08:35:56;;;;;;;22.75;9.00;;;4.20;99.90;;;;;;6277574;22;20051;-90
2022/03/04 08:38:26;;;;;;;18.75;8.48;;;4.20;99.90;;;;;;6251242;22;20073;-90
2022/03/04 08:40:54;;;;;;;19.02;8.02;;;4.20;99.90;;;;;;6250075;22;20054;-88
2022/03/04 08:43:23;;;;;;;18.90;8.25;;;4.30;99.90;;;;;;6250155;22;20016;-90
2022/03/04 08:45:54;;;;;;;28.48;9.80;;;4.30;99.90;;;;;;6225497;22;20077;-90
2022/03/04 08:48:24;;;;;;;20.27;10.02;;;4.30;99.90;;;;;;6225169;22;20018;-90
2022/03/04 08:50:55;;;;;;;22.90;10.52;;;4.40;99.90;;;;;;6276454;22;20070;-90
2022/03/04 08:53:22;;;;;;;17.90;9.02;;;4.40;99.90;;;;;;6224034;22;20015;-90
2022/03/04 08:55:50;;;;;;;20.88;10.25;;;4.50;99.90;;;;;;6248633;22;20023;-90
2022/03/04 08:58:17;;;;;;;29.10;13.27;;;4.50;99.90;;;;;;6249298;22;20031;-90
2022/03/04 09:00:44;;;;;;;22.95;11.20;;;4.40;99.90;;;;;;6249535;22;20020;-90
2022/03/04 09:03:12;;;;;;;25.35;11.50;;;4.40;99.90;;;;;;6251145;22;20015;-89
2022/03/04 09:05:39;;;;;;;19.17;9.35;;;4.50;99.90;;;;;;6225801;22;20047;-90
2022/03/04 09:08:06;;;;;;;22.38;11.55;;;4.40;99.90;;;;;;6225971;22;20102;-90
2022/03/04 09:10:33;;;;;;;29.20;13.43;;;4.40;99.90;;;;;;6225924;22;20469;-89
2022/03/04 09:13:04;;;;;;;21.20;9.40;;;4.40;99.90;;;;;;6278539;22;20016;-89
2022/03/04 09:15:32;;;;;;;31.70;13.55;;;4.30;99.90;;;;;;6226536;22;20493;-91
2022/03/04 09:17:59;;;;;;;27.58;13.40;;;4.30;99.90;;;;;;6278563;22;20023;-89
2022/03/04 09:20:33;;;;;;;23.08;11.48;;;4.30;99.90;;;;;;6228251;22;20019;-90
2022/03/04 09:23:01;;;;;;;28.92;12.80;;;4.30;99.90;;;;;;6226580;22;20023;-90
2022/03/04 09:25:28;;;;;;;23.35;10.98;;;4.30;99.90;;;;;;6251753;22;20019;-89
2022/03/04 09:27:57;;;;;;;29.85;12.13;;;4.30;99.90;;;;;;6245647;23;20055;-90
2022/03/04 09:30:25;;;;;;;34.88;15.00;;;4.30;99.90;;;;;;6246740;23;20092;-89
2022/03/04 09:32:52;;;;;;;32.40;13.95;;;4.30;99.90;;;;;;6246322;23;20016;-89
2022/03/04 09:35:20;;;;;;;28.02;12.07;;;4.30;99.90;;;;;;6221647;23;20047;-89
2022/03/04 09:37:53;;;;;;;23.35;11.65;;;4.30;99.90;;;;;;6247954;22;20020;-89
2022/03/04 09:40:20;;;;;;;25.30;12.40;;;4.40;99.90;;;;;;6245475;23;20026;-90
2022/03/04 09:42:47;;;;;;;29.95;13.10;;;4.40;99.90;;;;;;6245882;23;20024;-90
2022/03/04 09:45:17;;;;;;;27.13;12.30;;;4.40;99.90;;;;;;6246075;23;20008;-90
2022/03/04 09:47:50;;;;;;;28.80;13.57;;;4.40;99.90;;;;;;6247003;22;20066;-90
2022/03/04 09:50:34;;;;;;;29.58;13.30;;;4.40;99.90;;;;;;6222665;23;20022;-91
2022/03/04 09:53:09;;;;;;;25.48;12.27;;;4.50;99.90;;;;;;6244615;23;20103;-89
2022/03/04 09:55:53;;;;;;;37.40;15.05;;;4.50;99.90;;;;;;6222342;23;20046;-90
2022/03/04 09:58:35;;;;;;;35.40;15.90;;;4.50;99.90;;;;;;6245876;23;20040;-90
2022/03/04 10:01:19;;;;;;;41.03;16.00;;;4.50;99.90;;;;;;6245937;23;20440;-89
2022/03/04 10:07:33;;;;;;;32.08;15.40;;;4.60;99.90;;;;;;6238239;23;20035;-90
2022/03/04 10:14:13;;;;;;;36.03;15.70;;;4.60;99.90;;;;;;6247078;23;20091;-90
2022/03/04 10:16:48;;;;;;;34.28;15.05;;;4.70;99.90;;;;;;6245532;23;20019;-90
2022/03/04 10:19:25;;;;;;;41.47;18.05;;;4.80;99.90;;;;;;6245716;23;20013;-89
2022/03/04 10:22:00;;;;;;;32.65;16.25;;;4.80;99.90;;;;;;6247589;22;20092;-90
2022/03/04 10:24:31;;;;;;;37.90;18.42;;;4.80;99.90;;;;;;6245851;23;20008;-90
2022/03/04 10:27:02;;;;;;;40.00;16.50;;;4.70;99.90;;;;;;6251489;22;20015;-90
2022/03/04 10:29:57;;;;;;;45.60;17.70;;;4.70;99.90;;;;;;6277628;22;20016;-90
2022/03/04 10:32:31;;;;;;;43.42;19.20;;;4.80;99.90;;;;;;6251231;22;20030;-90
2022/03/04 10:35:07;;;;;;;41.97;17.95;;;4.80;99.90;;;;;;6250307;22;20387;-90
2022/03/04 10:37:56;;;;;;;42.15;17.55;;;4.70;99.90;;;;;;6252370;22;20447;-90
2022/03/04 10:40:43;;;;;;;32.25;13.68;;;4.70;99.90;;;;;;6250659;22;20028;-90
2022/03/04 10:43:12;;;;;;;41.33;15.97;;;4.80;99.90;;;;;;6225496;22;20023;-90
2022/03/04 10:45:41;;;;;;;36.33;16.65;;;4.80;99.90;;;;;;6249803;22;20292;-90
2022/03/04 10:48:15;;;;;;;35.45;17.23;;;4.80;99.90;;;;;;6250157;22;20020;-90
2022/03/04 10:50:51;;;;;;;42.35;18.45;;;4.80;99.90;;;;;;6250458;22;20038;-90
2022/03/04 10:53:29;;;;;;;35.75;16.60;;;4.80;99.90;;;;;;6277178;22;20039;-91
2022/03/04 10:56:04;;;;;;;37.78;16.38;;;4.90;99.90;;;;;;6250197;22;20447;-90
2022/03/04 10:59:03;;;;;;;36.90;16.10;;;5.00;99.90;;;;;;6249566;22;20043;-91
2022/03/04 11:02:34;;;;;;;33.60;15.75;;;5.00;99.90;;;;;;6248141;22;20020;-91
2022/03/04 11:06:00;;;;;;;43.03;17.30;;;5.00;99.90;;;;;;6255453;22;20024;-91
2022/03/04 11:09:45;;;;;;;41.40;16.95;;;5.00;99.90;;;;;;6182356;23;20404;-90
2022/03/04 11:12:42;;;;;;;39.53;17.30;;;5.10;99.90;;;;;;6091598;23;20025;-90
2022/03/04 11:15:40;;;;;;;40.70;16.30;;;5.20;99.90;;;;;;6183141;23;20017;-90
2022/03/04 11:18:52;;;;;;;39.47;19.00;;;5.10;99.90;;;;;;6163742;23;20492;-90
2022/03/04 11:22:21;;;;;;;39.27;16.50;;;5.30;99.90;;;;;;6183233;23;20031;-90
2022/03/04 11:25:23;;;;;;;35.28;16.80;;;5.40;99.90;;;;;;6138982;23;20262;-90
2022/03/04 11:28:30;;;;;;;37.78;16.85;;;5.50;99.90;;;;;;6157021;23;20041;-90
2022/03/04 11:31:39;;;;;;;35.92;16.25;;;5.60;99.90;;;;;;6180374;23;20068;-90
2022/03/04 11:34:47;;;;;;;36.58;16.15;;;5.70;99.90;;;;;;6162622;23;20384;-91
2022/03/04 11:37:59;;;;;;;40.70;16.48;;;5.70;99.90;;;;;;6134575;23;20024;-91
2022/03/04 11:40:56;;;;;;;33.92;16.70;;;5.80;99.90;;;;;;6207150;23;20027;-90
2022/03/04 11:43:54;;;;;;;39.67;19.02;;;6.00;99.90;;;;;;6244493;23;20039;-91
2022/03/04 11:46:53;;;;;;;41.17;19.45;;;6.00;99.90;;;;;;6245813;23;20086;-91
2022/03/04 11:49:47;;;;;;;33.22;15.55;;;6.00;99.90;;;;;;6244614;23;20024;-91
2022/03/04 11:52:49;;;;;;;29.55;15.05;;;6.00;99.90;;;;;;6245606;23;20024;-91
2022/03/04 11:55:26;;;;;;;;;;;6.00;99.90;;;;;;6245712;23;20023;-92
2022/03/04 11:58:10;;;;;;;35.72;16.00;;;6.10;99.90;;;;;;6242720;23;19970;-91
2022/03/04 12:00:46;;;;;;;32.53;15.02;;;6.20;99.90;;;;;;6244444;23;20325;-90
2022/03/04 12:03:27;;;;;;;33.70;15.65;;;6.10;99.90;;;;;;6244461;23;20031;-91
2022/03/04 12:06:10;;;;;;;38.42;17.35;;;6.30;99.90;;;;;;6219910;23;20016;-91
2022/03/04 12:09:00;;;;;;;33.65;16.45;;;6.40;99.90;;;;;;6244805;23;20018;-91
2022/03/04 12:11:41;;;;;;;31.95;15.20;;;6.50;99.90;;;;;;6244121;23;20024;-90
2022/03/04 12:14:17;;;;;;;35.08;16.33;;;6.40;99.90;;;;;;6216968;23;20417;-90
2022/03/04 12:16:49;;;;;;;35.35;15.75;;;6.40;99.90;;;;;;6245788;22;20321;-91
2022/03/04 12:19:30;;;;;;;35.70;16.88;;;6.50;99.90;;;;;;6244532;23;20016;-90
2022/03/04 12:22:06;;;;;;;31.95;14.93;;;6.70;99.90;;;;;;6219860;23;20016;-88
2022/03/04 12:24:36;;;;;;;37.17;17.30;;;6.70;99.90;;;;;;6246103;22;20020;-88
2022/03/04 12:27:04;;;;;;;38.00;17.75;;;6.70;99.90;;;;;;6243081;23;20444;-90
2022/03/04 12:29:47;;;;;;;41.85;17.17;;;6.80;99.90;;;;;;6245519;22;20036;-90
2022/03/04 12:32:27;;;;;;;32.58;16.65;;;6.80;99.90;;;;;;6246114;22;20511;-90
2022/03/04 12:34:57;;;;;;;36.53;16.17;;;6.80;99.90;;;;;;6244005;23;20099;-90
2022/03/04 12:37:24;;;;;;;40.50;15.70;;;6.80;99.90;;;;;;6245521;23;20126;-90
2022/03/04 12:39:58;;;;;;;45.58;18.17;;;6.80;99.90;;;;;;6246193;23;20087;-90
2022/03/04 12:42:26;;;;;;;33.05;16.85;;;6.90;99.90;;;;;;6221874;23;20081;-90
2022/03/04 12:45:04;;;;;;;39.78;18.00;;;6.90;99.90;;;;;;6246855;23;20016;-91
2022/03/04 12:48:28;;;;;;;40.03;17.30;;;7.00;99.90;;;;;;6248539;23;20081;-91
2022/03/04 12:51:29;;;;;;;32.90;15.15;;;7.10;99.90;;;;;;6246693;23;20072;-92
2022/03/04 12:58:04;;;;;;;38.17;18.25;;;7.20;99.90;;;;;;6140674;23;20314;-91
2022/03/04 13:01:22;;;;;;;31.60;16.08;;;7.10;99.90;;;;;;6129971;23;20025;-92
2022/03/04 13:04:13;;;;;;;31.88;16.02;;;7.20;99.90;;;;;;6119981;23;20479;-93
2022/03/04 13:06:40;;;;;;;39.67;19.85;;;7.40;99.90;;;;;;6156096;23;20088;-93
2022/03/04 13:09:10;;;;;;;39.40;17.30;;;7.40;99.90;;;;;;6220186;23;20020;-87
2022/03/04 13:11:44;;;;;;;36.08;15.38;;;7.50;99.90;;;;;;6248441;22;20062;-91
2022/03/04 13:14:50;;;;;;;33.25;16.70;;;7.50;99.90;;;;;;6246689;23;20329;-92
2022/03/04 13:17:17;;;;;;;37.40;17.42;;;7.50;99.90;;;;;;6185000;23;20408;-91
2022/03/04 13:19:45;;;;;;;35.55;16.10;;;7.60;99.90;;;;;;6161042;23;20116;-90